Time;durP1;ratioP1;P1;durP2;ratioP2;P2;SDS_P1;SDS_P2;PMS_P1;PMS_P2;Temp;Humidity;BMP_temperature;BMP_pressure;BME280_temperature;BME280_humidity;BME280_pressure;Samples;Min_cycle;Max_cycle;Signal;HPM_P1;HPM_P2
2022/10/03 00:00:13;;;;;;;11.77;3.03;;;10.70;99.90;;;;;;5052793;28;20639;-56
2022/10/03 00:02:51;;;;;;;12.87;2.77;;;10.60;99.90;;;;;;5068594;28;20180;-56
2022/10/03 00:05:29;;;;;;;14.27;3.20;;;10.60;99.90;;;;;;5070904;28;20211;-56
2022/10/03 00:08:26;;;;;;;14.13;3.30;;;10.70;99.90;;;;;;5071406;28;20191;-57
2022/10/03 00:11:16;;;;;;;12.17;3.03;;;10.50;99.90;;;;;;5063653;28;20181;-56
2022/10/03 00:13:48;;;;;;;10.53;2.70;;;10.40;99.90;;;;;;5069861;28;20184;-56
2022/10/03 00:16:17;;;;;;;9.60;2.87;;;10.40;99.90;;;;;;5072061;28;20251;-56
2022/10/03 00:19:06;;;;;;;14.97;3.23;;;10.60;99.90;;;;;;5072679;28;20247;-56
2022/10/03 00:22:07;;;;;;;14.67;3.37;;;10.40;99.90;;;;;;5071798;28;20180;-56
2022/10/03 00:24:49;;;;;;;10.67;2.83;;;10.40;99.90;;;;;;5072455;28;20211;-56
2022/10/03 00:27:32;;;;;;;11.47;3.00;;;10.20;99.90;;;;;;5071693;28;20291;-56
2022/10/03 00:30:04;;;;;;;14.10;3.20;;;10.30;99.90;;;;;;5070806;28;20181;-56
2022/10/03 00:32:48;;;;;;;8.73;3.23;;;10.20;99.90;;;;;;5072589;28;20164;-56
2022/10/03 00:35:34;;;;;;;12.33;3.87;;;10.30;99.90;;;;;;5070835;28;20665;-57
2022/10/03 00:38:19;;;;;;;10.47;3.70;;;10.20;99.90;;;;;;5062843;28;20259;-56
2022/10/03 00:40:51;;;;;;;10.47;3.17;;;10.30;99.90;;;;;;5052316;28;20169;-57
2022/10/03 00:43:42;;;;;;;8.90;3.50;;;10.10;99.90;;;;;;5052305;28;20169;-56
2022/10/03 00:46:53;;;;;;;13.20;4.07;;;10.00;99.90;;;;;;5067184;28;20618;-56
2022/10/03 00:49:55;;;;;;;11.63;3.60;;;10.10;99.90;;;;;;5071964;28;20333;-57
2022/10/03 00:52:36;;;;;;;13.27;3.30;;;9.90;99.90;;;;;;5058555;28;20181;-56
2022/10/03 00:55:34;;;;;;;13.07;4.07;;;10.00;99.90;;;;;;5071332;28;20180;-56
2022/10/03 00:58:21;;;;;;;13.20;4.67;;;10.00;99.90;;;;;;5048533;28;20212;-56
2022/10/03 01:00:51;;;;;;;15.87;4.03;;;10.10;99.90;;;;;;5071417;28;20255;-56
2022/10/03 01:03:19;;;;;;;12.33;3.43;;;10.10;99.90;;;;;;5068591;28;20535;-56
2022/10/03 01:05:45;;;;;;;12.00;3.67;;;;;;;;;;5052114;28;20675;-56
2022/10/03 01:08:35;;;;;;;20.57;4.80;;;9.80;99.90;;;;;;5060023;28;20241;-56
2022/10/03 01:11:23;;;;;;;17.87;4.93;;;10.00;99.90;;;;;;5058710;28;20180;-56
2022/10/03 01:14:17;;;;;;;18.27;5.43;;;9.90;99.90;;;;;;5069616;28;20550;-54
2022/10/03 01:16:42;;;;;;;23.50;5.23;;;10.20;99.90;;;;;;5061033;28;20177;-57
2022/10/03 01:19:39;;;;;;;20.17;5.50;;;9.20;99.90;;;;;;5065641;28;20675;-54
2022/10/03 01:22:05;;;;;;;13.63;5.47;;;;;;;;;;5070726;28;20206;-55
2022/10/03 01:24:31;;;;;;;12.37;5.80;;;;;;;;;;5054481;28;20228;-55
2022/10/03 01:27:05;;;;;;;17.23;5.13;;;10.20;99.90;;;;;;5071564;28;20172;-55
2022/10/03 01:32:46;;;;;;;15.93;4.93;;;10.10;99.90;;;;;;5071602;28;20168;-55
2022/10/03 01:35:23;;;;;;;11.93;4.60;;;10.10;99.90;;;;;;5070979;28;20206;-55
2022/10/03 01:38:07;;;;;;;13.13;4.03;;;10.00;99.90;;;;;;5055837;28;20181;-55
2022/10/03 01:40:39;;;;;;;18.17;4.13;;;10.00;99.90;;;;;;5068726;28;20204;-55
2022/10/03 01:43:22;;;;;;;12.93;4.13;;;9.80;99.90;;;;;;5066379;28;20212;-55
2022/10/03 01:45:53;;;;;;;11.47;4.40;;;10.00;99.90;;;;;;5070204;28;20311;-55
2022/10/03 01:48:46;;;;;;;17.73;4.47;;;10.00;99.90;;;;;;5070804;28;20181;-55
2022/10/03 01:51:12;;;;;;;13.13;4.20;;;;;;;;;;5062650;28;20188;-55
2022/10/03 01:53:38;;;;;;;9.17;4.17;;;;;;;;;;5070814;28;20191;-55
2022/10/03 01:56:24;;;;;;;18.90;4.60;;;10.20;99.90;;;;;;5057202;28;20209;-55
2022/10/03 01:59:12;;;;;;;19.53;4.10;;;10.30;99.90;;;;;;5060309;28;20187;-55
2022/10/03 02:01:47;;;;;;;10.03;4.00;;;10.20;99.90;;;;;;5068582;28;20177;-55
2022/10/03 02:04:20;;;;;;;12.57;4.20;;;10.10;99.90;;;;;;5069134;28;20180;-55
2022/10/03 02:06:58;;;;;;;14.00;4.00;;;10.20;99.90;;;;;;5070570;28;20219;-55
2022/10/03 02:09:56;;;;;;;11.40;4.03;;;10.50;99.90;;;;;;5068003;28;20262;-55
2022/10/03 02:12:40;;;;;;;9.90;3.87;;;10.00;99.90;;;;;;5060426;28;20213;-55
2022/10/03 02:15:44;;;;;;;9.83;4.03;;;10.10;99.90;;;;;;5067192;28;20635;-56
2022/10/03 02:18:28;;;;;;;15.13;4.10;;;10.60;99.90;;;;;;5038855;28;20266;-55
2022/10/03 02:21:20;;;;;;;14.13;4.23;;;10.40;99.90;;;;;;5056179;28;20184;-56
2022/10/03 02:23:48;;;;;;;8.83;3.83;;;10.50;99.90;;;;;;5050786;28;20173;-55
2022/10/03 02:26:55;;;;;;;11.53;4.00;;;10.60;99.90;;;;;;5066495;28;20299;-56
2022/10/03 02:29:21;;;;;;;15.57;4.33;;;;;;;;;;5049468;28;20195;-56
2022/10/03 02:32:08;;;;;;;7.13;3.30;;;10.50;99.90;;;;;;5050483;28;20479;-56
2022/10/03 02:34:42;;;;;;;15.13;4.17;;;10.40;99.90;;;;;;5068990;28;20208;-57
2022/10/03 02:37:29;;;;;;;12.63;3.83;;;10.50;99.90;;;;;;5073898;28;20230;-56
2022/10/03 02:40:07;;;;;;;17.43;3.90;;;10.40;99.90;;;;;;5071913;28;20557;-56
2022/10/03 02:42:51;;;;;;;15.30;4.13;;;10.80;99.90;;;;;;5062554;28;20173;-55
2022/10/03 02:45:20;;;;;;;8.57;3.93;;;10.70;99.90;;;;;;5054413;28;20201;-55
2022/10/03 02:47:48;;;;;;;17.27;3.90;;;10.40;99.90;;;;;;5054543;28;20225;-55
2022/10/03 02:50:48;;;;;;;11.10;3.70;;;10.70;99.90;;;;;;5061700;28;20261;-56
2022/10/03 02:53:47;;;;;;;11.50;4.07;;;10.60;99.90;;;;;;5073534;28;20654;-55
2022/10/03 02:56:43;;;;;;;12.63;4.57;;;10.60;99.90;;;;;;5065993;28;20211;-55
2022/10/03 02:59:36;;;;;;;12.93;4.40;;;10.60;99.90;;;;;;5074197;28;20223;-55
2022/10/03 03:02:24;;;;;;;16.83;4.00;;;10.70;99.90;;;;;;5060524;28;20173;-55
2022/10/03 03:05:08;;;;;;;12.50;4.07;;;10.50;99.90;;;;;;5073535;28;20274;-55
2022/10/03 03:07:43;;;;;;;17.60;4.20;;;10.60;99.90;;;;;;5057583;28;20204;-56
2022/10/03 03:10:27;;;;;;;10.83;3.90;;;10.50;99.90;;;;;;5073462;28;20188;-55
2022/10/03 03:13:42;;;;;;;15.90;3.97;;;10.40;99.90;;;;;;5066784;28;20227;-56
2022/10/03 03:16:39;;;;;;;9.97;4.13;;;10.60;99.90;;;;;;5073078;28;20179;-55
2022/10/03 03:19:47;;;;;;;9.23;4.07;;;10.60;99.90;;;;;;5058728;28;20180;-55
2022/10/03 03:22:43;;;;;;;13.37;4.10;;;10.00;99.90;;;;;;5046032;28;20265;-55
2022/10/03 03:25:34;;;;;;;10.37;4.10;;;10.60;99.90;;;;;;5069400;28;20228;-55
2022/10/03 03:28:18;;;;;;;12.43;4.03;;;10.70;99.90;;;;;;5068156;28;20184;-55
2022/10/03 03:30:58;;;;;;;11.83;4.57;;;10.50;99.90;;;;;;5072817;28;20180;-55
2022/10/03 03:33:50;;;;;;;10.23;3.67;;;10.60;99.90;;;;;;5073519;28;20173;-55
2022/10/03 03:36:31;;;;;;;14.90;4.20;;;10.80;99.90;;;;;;5056256;28;20177;-55
2022/10/03 03:38:57;;;;;;;11.87;3.87;;;;;;;;;;5058167;28;20270;-55
2022/10/03 03:42:00;;;;;;;12.43;4.00;;;10.70;99.90;;;;;;5071022;28;20684;-55
2022/10/03 03:44:44;;;;;;;14.13;4.70;;;10.80;99.90;;;;;;5072553;28;20168;-55
2022/10/03 03:47:13;;;;;;;15.37;4.07;;;;;;;;;;5071683;28;20192;-55
2022/10/03 03:50:00;;;;;;;22.67;4.23;;;11.10;99.90;;;;;;5073078;28;20175;-55
2022/10/03 03:52:31;;;;;;;19.47;4.33;;;11.00;99.90;;;;;;5073156;28;20180;-55
2022/10/03 03:55:25;;;;;;;14.80;3.70;;;11.20;99.90;;;;;;5071095;28;20177;-55
2022/10/03 03:57:55;;;;;;;13.63;3.90;;;10.90;99.90;;;;;;5053265;28;20197;-55
2022/10/03 04:00:30;;;;;;;16.97;3.80;;;11.10;99.90;;;;;;5062633;28;20188;-56
2022/10/03 04:02:55;;;;;;;15.47;3.97;;;11.00;99.90;;;;;;5072589;28;20208;-55
2022/10/03 04:05:51;;;;;;;16.17;3.53;;;11.10;99.90;;;;;;5072656;28;20267;-56
2022/10/03 04:08:25;;;;;;;11.63;3.93;;;10.90;99.90;;;;;;5072666;28;20179;-56
2022/10/03 04:10:52;;;;;;;13.13;3.97;;;;;;;;;;5066078;28;20244;-55
2022/10/03 04:13:46;;;;;;;13.03;3.10;;;10.90;99.90;;;;;;5067360;28;20224;-55
2022/10/03 04:19:29;;;;;;;10.40;4.10;;;11.00;99.90;;;;;;5072297;28;20195;-55
2022/10/03 04:22:22;;;;;;;12.43;3.83;;;11.10;99.90;;;;;;5071295;28;20180;-55
2022/10/03 04:25:19;;;;;;;9.87;3.60;;;10.90;99.90;;;;;;5057469;28;20208;-55
2022/10/03 04:28:03;;;;;;;10.60;3.40;;;10.90;99.90;;;;;;5035055;28;20221;-56
2022/10/03 04:31:05;;;;;;;16.13;4.40;;;11.00;99.90;;;;;;5060158;28;20231;-55
2022/10/03 04:34:05;;;;;;;16.10;3.83;;;10.60;99.90;;;;;;5072064;28;20164;-55
2022/10/03 04:36:46;;;;;;;15.70;3.50;;;10.90;99.90;;;;;;5071872;28;20176;-55
2022/10/03 04:39:36;;;;;;;15.60;3.57;;;11.00;99.90;;;;;;5059962;28;20185;-55
2022/10/03 04:42:22;;;;;;;15.03;3.20;;;10.80;99.90;;;;;;5053076;28;20192;-55
2022/10/03 04:45:16;;;;;;;18.30;3.37;;;11.00;99.90;;;;;;5066975;28;20279;-55
2022/10/03 04:48:05;;;;;;;13.87;3.40;;;10.80;99.90;;;;;;5072157;28;20267;-55
2022/10/03 04:50:39;;;;;;;13.37;3.17;;;10.90;99.90;;;;;;5051992;28;20272;-55
2022/10/03 04:53:30;;;;;;;15.50;3.43;;;11.00;99.90;;;;;;5052026;28;20579;-55
2022/10/03 04:56:16;;;;;;;13.00;2.90;;;11.00;99.90;;;;;;5052098;28;20166;-56
2022/10/03 04:58:51;;;;;;;9.33;3.00;;;11.00;99.90;;;;;;5051610;28;20652;-55
2022/10/03 05:01:23;;;;;;;13.77;3.33;;;10.90;99.90;;;;;;5051889;28;20255;-56
2022/10/03 05:04:09;;;;;;;13.17;3.40;;;11.00;99.90;;;;;;5057048;28;20177;-56
2022/10/03 05:06:47;;;;;;;14.67;3.37;;;11.20;99.90;;;;;;5071388;28;20243;-55
2022/10/03 05:09:13;;;;;;;10.73;2.70;;;;;;;;;;5071316;28;20178;-55
2022/10/03 05:11:41;;;;;;;13.87;2.83;;;11.10;99.90;;;;;;5070598;28;20681;-56
2022/10/03 05:14:23;;;;;;;13.23;3.43;;;11.10;99.90;;;;;;5069501;28;20199;-55
2022/10/03 05:17:05;;;;;;;15.47;3.10;;;11.10;99.90;;;;;;5070973;28;20188;-55
2022/10/03 05:19:46;;;;;;;10.67;2.93;;;11.10;99.90;;;;;;5071305;28;20180;-55
2022/10/03 05:22:36;;;;;;;13.83;3.60;;;10.80;99.90;;;;;;5071463;28;20187;-55
2022/10/03 05:25:26;;;;;;;12.33;3.27;;;11.10;99.90;;;;;;5070923;28;20219;-55
2022/10/03 05:28:08;;;;;;;13.77;3.20;;;11.20;99.90;;;;;;5051812;28;20566;-56
2022/10/03 05:30:53;;;;;;;12.17;2.97;;;11.00;99.90;;;;;;5071081;28;20612;-55
2022/10/03 05:33:19;;;;;;;12.33;3.37;;;;;;;;;;5070325;28;20180;-56
2022/10/03 05:36:10;;;;;;;16.17;2.93;;;11.40;99.90;;;;;;5052750;28;20617;-55
2022/10/03 05:39:14;;;;;;;9.93;3.13;;;11.20;99.90;;;;;;5067012;28;20204;-56
2022/10/03 05:41:49;;;;;;;17.40;3.30;;;11.20;99.90;;;;;;5060826;28;20265;-57
2022/10/03 05:44:18;;;;;;;15.33;3.30;;;11.30;99.90;;;;;;5054054;28;20184;-54
2022/10/03 05:46:47;;;;;;;16.27;3.60;;;11.30;99.90;;;;;;5057906;28;20213;-55
2022/10/03 05:49:38;;;;;;;13.20;3.30;;;11.20;99.90;;;;;;5051017;28;20199;-56
2022/10/03 05:52:13;;;;;;;15.43;2.50;;;11.30;99.90;;;;;;5051103;28;20205;-55
2022/10/03 05:55:16;;;;;;;13.37;3.00;;;11.30;99.90;;;;;;5058089;28;20180;-55
2022/10/03 05:58:08;;;;;;;15.53;3.10;;;11.30;99.90;;;;;;5070629;28;20183;-54
2022/10/03 06:00:34;;;;;;;22.87;3.27;;;;;;;;;;5070650;28;20660;-58
2022/10/03 06:03:21;;;;;;;14.47;2.90;;;11.30;99.90;;;;;;5069393;28;20218;-55
2022/10/03 06:06:00;;;;;;;14.13;2.97;;;11.30;99.90;;;;;;5065974;28;20212;-56
2022/10/03 06:08:43;;;;;;;16.23;4.07;;;11.40;99.90;;;;;;5057085;28;20726;-56
2022/10/03 06:11:54;;;;;;;16.27;2.73;;;11.40;99.90;;;;;;5067898;28;20692;-56
2022/10/03 06:14:19;;;;;;;16.23;2.90;;;11.60;99.90;;;;;;5050986;28;20240;-56
2022/10/03 06:16:54;;;;;;;9.90;2.47;;;11.60;99.90;;;;;;5065700;28;20699;-57
2022/10/03 06:19:41;;;;;;;10.63;2.63;;;11.60;99.90;;;;;;5068296;28;20262;-56
2022/10/03 06:22:31;;;;;;;11.57;2.93;;;11.60;99.90;;;;;;5067934;28;20172;-56
2022/10/03 06:25:00;;;;;;;10.73;2.53;;;11.50;99.90;;;;;;5067948;28;20204;-56
2022/10/03 06:27:31;;;;;;;17.77;3.43;;;11.60;99.90;;;;;;5068835;28;20263;-56
2022/10/03 06:30:23;;;;;;;12.90;3.30;;;11.40;99.90;;;;;;5059135;28;20222;-58
2022/10/03 06:33:07;;;;;;;15.17;2.97;;;11.60;99.90;;;;;;5059693;28;20181;-57
2022/10/03 06:35:58;;;;;;;12.57;3.03;;;11.60;99.90;;;;;;5069788;28;20184;-56
2022/10/03 06:38:26;;;;;;;15.07;3.37;;;11.50;99.90;;;;;;5067632;28;20267;-56
2022/10/03 06:41:24;;;;;;;13.40;2.70;;;11.70;99.90;;;;;;5060929;28;20666;-56
2022/10/03 06:44:45;;;;;;;10.37;2.90;;;11.60;99.90;;;;;;5064100;28;20279;-56
2022/10/03 06:47:25;;;;;;;16.47;2.63;;;11.80;99.90;;;;;;4992564;28;20183;-56
2022/10/03 06:50:31;;;;;;;12.27;3.17;;;11.70;99.90;;;;;;5007747;28;20688;-56
2022/10/03 06:53:21;;;;;;;15.50;2.90;;;12.00;99.90;;;;;;5058091;28;20187;-56
2022/10/03 06:55:58;;;;;;;13.73;3.20;;;11.80;99.90;;;;;;5052748;28;20205;-56
2022/10/03 06:59:02;;;;;;;14.10;2.87;;;11.80;99.90;;;;;;5049467;28;20729;-55
2022/10/03 07:01:39;;;;;;;14.13;2.73;;;11.70;99.90;;;;;;5068465;28;20233;-56
2022/10/03 07:04:35;;;;;;;17.33;3.53;;;11.70;99.90;;;;;;5069677;28;20209;-56
2022/10/03 07:07:09;;;;;;;13.83;3.10;;;11.90;99.90;;;;;;5054429;28;20173;-53
2022/10/03 07:09:43;;;;;;;19.43;3.23;;;11.60;99.90;;;;;;5066623;28;20229;-54
2022/10/03 07:12:39;;;;;;;15.70;3.03;;;11.50;99.90;;;;;;5069132;28;20244;-53
2022/10/03 07:15:05;;;;;;;10.97;2.77;;;;;;;;;;5050400;28;20196;-54
2022/10/03 07:18:14;;;;;;;16.13;3.33;;;11.50;99.90;;;;;;5059074;28;20251;-53
2022/10/03 07:20:39;;;;;;;16.43;3.03;;;;;;;;;;5054409;28;20184;-53
2022/10/03 07:23:20;;;;;;;15.33;3.30;;;11.80;99.90;;;;;;5056119;28;20239;-53
2022/10/03 07:26:07;;;;;;;10.57;3.00;;;11.70;99.90;;;;;;5072794;28;20204;-53
2022/10/03 07:28:55;;;;;;;17.33;4.13;;;12.00;99.90;;;;;;5073389;28;20172;-53
2022/10/03 07:31:45;;;;;;;10.40;3.17;;;11.90;99.90;;;;;;5073002;28;20180;-54
2022/10/03 07:34:36;;;;;;;16.67;3.43;;;12.00;99.90;;;;;;5073117;28;20255;-55
2022/10/03 07:40:32;;;;;;;10.97;2.97;;;12.00;99.90;;;;;;5063280;28;20183;-55
2022/10/03 07:43:23;;;;;;;12.63;3.20;;;12.10;99.90;;;;;;5072626;28;20664;-57
2022/10/03 07:46:25;;;;;;;14.13;3.57;;;12.10;99.90;;;;;;5072851;28;20248;-56
2022/10/03 07:49:06;;;;;;;15.43;3.33;;;12.00;99.90;;;;;;5072779;28;20191;-57
2022/10/03 07:52:22;;;;;;;15.83;3.13;;;12.30;99.90;;;;;;5071347;28;20279;-57
2022/10/03 07:55:17;;;;;;;11.87;3.20;;;12.40;99.90;;;;;;5054504;28;20658;-57
2022/10/03 07:57:57;;;;;;;17.43;3.17;;;12.40;99.90;;;;;;5051620;28;20188;-54
2022/10/03 08:01:13;;;;;;;11.30;2.90;;;12.40;99.90;;;;;;5071999;28;20180;-54
2022/10/03 08:04:10;;;;;;;10.77;3.33;;;12.30;99.90;;;;;;5051541;28;20189;-54
2022/10/03 08:06:57;;;;;;;23.53;4.07;;;12.70;99.90;;;;;;5056452;28;20211;-54
2022/10/03 08:10:03;;;;;;;15.10;3.10;;;12.70;99.90;;;;;;5065796;28;20234;-55
2022/10/03 08:12:47;;;;;;;20.50;3.43;;;12.60;99.90;;;;;;5046940;28;20241;-54
2022/10/03 08:15:30;;;;;;;16.13;3.90;;;13.10;99.90;;;;;;5072656;28;20168;-55
2022/10/03 08:18:17;;;;;;;19.90;3.90;;;13.50;99.90;;;;;;5072697;28;20168;-55
2022/10/03 08:20:56;;;;;;;20.08;4.30;;;13.80;99.90;;;;;;5072424;28;20294;-55
2022/10/03 08:23:49;;;;;;;19.77;4.70;;;13.70;99.90;;;;;;5072393;28;20692;-55
2022/10/03 08:26:29;;;;;;;21.70;4.45;;;13.90;99.90;;;;;;5071782;28;20204;-55
2022/10/03 08:29:03;;;;;;;15.20;4.03;;;13.60;99.90;;;;;;5072147;28;20192;-55
2022/10/03 08:31:51;;;;;;;18.65;4.82;;;13.90;99.90;;;;;;5072267;28;20226;-55
2022/10/03 08:34:44;;;;;;;11.23;4.07;;;14.20;99.90;;;;;;5071533;28;20177;-55
2022/10/03 08:37:28;;;;;;;18.67;4.22;;;14.10;99.90;;;;;;5071484;28;20202;-55
2022/10/03 08:40:28;;;;;;;14.40;4.03;;;14.30;99.90;;;;;;5072125;28;20180;-55
2022/10/03 08:43:26;;;;;;;19.65;4.47;;;14.40;99.90;;;;;;5057590;28;20188;-55
2022/10/03 08:46:23;;;;;;;16.38;4.72;;;14.70;99.90;;;;;;5071018;28;20294;-55
2022/10/03 08:49:24;;;;;;;15.65;4.00;;;15.60;99.90;;;;;;5071317;28;20246;-55
2022/10/03 08:52:05;;;;;;;13.30;4.10;;;15.20;99.90;;;;;;5071951;28;20164;-55
2022/10/03 08:54:41;;;;;;;13.55;3.78;;;15.60;99.90;;;;;;5071074;28;20271;-55
2022/10/03 08:57:57;;;;;;;11.68;3.55;;;15.60;99.90;;;;;;5068357;28;20183;-55
2022/10/03 09:00:28;;;;;;;13.43;4.20;;;15.60;99.90;;;;;;5052099;28;20539;-54
2022/10/03 09:03:24;;;;;;;16.45;4.32;;;15.50;99.90;;;;;;5051736;28;20207;-55
2022/10/03 09:06:09;;;;;;;22.13;4.43;;;15.40;99.90;;;;;;5056707;28;20295;-53
2022/10/03 09:09:03;;;;;;;17.63;3.40;;;16.00;99.90;;;;;;5069473;28;20208;-53
2022/10/03 09:11:29;;;;;;;13.68;3.58;;;;;;;;;;5062994;28;20212;-53
2022/10/03 09:14:02;;;;;;;15.80;3.38;;;16.20;99.90;;;;;;5070381;28;20263;-53
2022/10/03 09:16:50;;;;;;;15.10;3.55;;;16.30;99.90;;;;;;5051887;28;20192;-53
2022/10/03 09:19:48;;;;;;;20.88;3.55;;;16.30;99.90;;;;;;5051674;28;20173;-53
2022/10/03 09:22:51;;;;;;;10.82;3.67;;;16.30;99.90;;;;;;5052695;28;20189;-54
2022/10/03 09:25:38;;;;;;;17.77;3.92;;;15.80;99.90;;;;;;5068765;28;20215;-54
2022/10/03 09:28:22;;;;;;;21.88;3.75;;;16.50;99.90;;;;;;5071253;28;20323;-54
2022/10/03 09:31:38;;;;;;;11.85;3.20;;;16.20;99.90;;;;;;5071218;28;20172;-54
2022/10/03 09:34:07;;;;;;;14.60;3.42;;;16.60;99.90;;;;;;5071330;28;20255;-54
2022/10/03 09:36:38;;;;;;;14.55;4.13;;;17.00;99.90;;;;;;5070966;28;20244;-54
2022/10/03 09:39:15;;;;;;;20.95;4.05;;;17.00;99.90;;;;;;5056208;28;20212;-54
2022/10/03 09:42:08;;;;;;;9.88;3.13;;;16.70;99.90;;;;;;5051651;28;20311;-54
2022/10/03 09:45:07;;;;;;;16.17;3.75;;;17.10;99.90;;;;;;5066543;28;20253;-54
2022/10/03 09:47:41;;;;;;;15.43;3.78;;;17.10;99.90;;;;;;5070790;28;20181;-54
2022/10/03 09:50:32;;;;;;;18.90;3.80;;;17.30;99.90;;;;;;5053062;28;20204;-54
2022/10/03 09:53:35;;;;;;;14.07;3.70;;;17.40;99.90;;;;;;5051103;28;20165;-54
2022/10/03 09:56:38;;;;;;;12.10;3.90;;;17.60;99.90;;;;;;5069816;28;20307;-54
2022/10/03 09:59:27;;;;;;;11.30;3.88;;;17.50;99.90;;;;;;5070516;28;20213;-54
2022/10/03 10:01:53;;;;;;;18.40;3.88;;;;;;;;;;5070537;28;20178;-54
2022/10/03 10:04:51;;;;;;;21.52;4.07;;;18.00;99.90;;;;;;5070542;28;20254;-54
2022/10/03 10:07:41;;;;;;;18.38;3.75;;;18.00;99.90;;;;;;5064634;28;20172;-54
2022/10/03 10:10:25;;;;;;;12.73;3.38;;;18.30;99.90;;;;;;5064162;28;20204;-54
2022/10/03 10:13:09;;;;;;;16.25;3.30;;;18.40;99.90;;;;;;5069978;28;20262;-54
2022/10/03 10:15:38;;;;;;;16.98;3.65;;;18.50;99.90;;;;;;5070324;28;20171;-54
2022/10/03 10:18:12;;;;;;;20.33;3.25;;;18.70;99.90;;;;;;5069913;28;20176;-54
2022/10/03 10:21:02;;;;;;;19.58;3.90;;;19.00;99.90;;;;;;5070245;28;20192;-54
2022/10/03 10:23:47;;;;;;;13.10;3.80;;;19.50;99.90;;;;;;5070318;28;20243;-54
2022/10/03 10:26:33;;;;;;;12.90;3.35;;;19.70;99.90;;;;;;5070037;28;20566;-60
2022/10/03 10:29:07;;;;;;;12.90;3.75;;;19.90;99.90;;;;;;5070195;28;20168;-61
2022/10/03 10:31:47;;;;;;;15.00;3.47;;;20.00;99.90;;;;;;5070212;28;20643;-60
2022/10/03 10:34:50;;;;;;;17.83;3.50;;;20.40;99.90;;;;;;5052008;28;20179;-60
2022/10/03 10:37:53;;;;;;;10.73;3.42;;;20.40;99.90;;;;;;5069749;28;20161;-61
2022/10/03 10:40:19;;;;;;;18.83;3.05;;;;;;;;;;5069924;28;20641;-62
2022/10/03 10:43:07;;;;;;;14.35;2.95;;;20.80;99.90;;;;;;5070175;28;20196;-61
2022/10/03 10:46:23;;;;;;;13.90;3.20;;;20.40;99.90;;;;;;5069665;28;20216;-61
2022/10/03 10:49:26;;;;;;;13.40;3.40;;;20.70;99.90;;;;;;5069814;28;20537;-61
2022/10/03 10:52:03;;;;;;;9.52;2.45;;;20.80;99.90;;;;;;5070110;28;20176;-72
2022/10/03 10:54:48;;;;;;;14.00;2.67;;;20.90;99.90;;;;;;5069949;28;20207;-70
2022/10/03 10:57:16;;;;;;;17.27;2.85;;;21.10;99.90;;;;;;5071983;28;20175;-59
2022/10/03 11:00:04;;;;;;;11.95;2.15;;;21.80;99.90;;;;;;5072588;28;20570;-60
2022/10/03 11:02:45;;;;;;;8.40;1.90;;;22.00;99.90;;;;;;5072683;28;20276;-57
2022/10/03 11:05:35;;;;;;;15.02;2.25;;;23.00;99.90;;;;;;5053719;28;20197;-57
2022/10/03 11:08:03;;;;;;;10.85;2.50;;;23.40;99.90;;;;;;5062694;28;20172;-58
2022/10/03 11:11:17;;;;;;;10.15;1.98;;;23.50;99.90;;;;;;5073930;28;20161;-58
2022/10/03 11:14:01;;;;;;;10.60;2.35;;;23.10;99.90;;;;;;5073505;28;20177;-58
2022/10/03 11:16:48;;;;;;;9.20;2.30;;;24.10;99.90;;;;;;5073544;28;20199;-57
2022/10/03 11:19:50;;;;;;;12.30;2.42;;;22.90;99.90;;;;;;5073778;28;20588;-57
2022/10/03 11:22:22;;;;;;;11.60;2.45;;;19.40;99.90;;;;;;5073561;28;20168;-57
2022/10/03 11:24:47;;;;;;;10.20;2.25;;;24.50;99.90;;;;;;5070747;28;20192;-58
2022/10/03 11:27:35;;;;;;;10.45;2.35;;;24.80;99.90;;;;;;5073709;28;20591;-58
2022/10/03 11:30:10;;;;;;;10.82;2.28;;;24.30;99.90;;;;;;5073195;28;20176;-57
2022/10/03 11:32:44;;;;;;;8.52;1.70;;;23.40;99.90;;;;;;5073696;28;20195;-57
2022/10/03 11:35:47;;;;;;;7.57;1.80;;;23.00;99.90;;;;;;5073294;28;20179;-57
2022/10/03 11:38:18;;;;;;;7.00;1.67;;;22.10;99.90;;;;;;5073531;28;20171;-58
2022/10/03 11:41:04;;;;;;;7.45;1.65;;;21.80;99.90;;;;;;5073087;28;20161;-57
2022/10/03 11:44:20;;;;;;;8.35;1.55;;;21.90;99.90;;;;;;5072929;28;20168;-57
2022/10/03 11:47:07;;;;;;;8.30;1.65;;;20.80;99.90;;;;;;4990590;28;20218;-57
2022/10/03 11:49:51;;;;;;;11.07;1.73;;;20.30;99.90;;;;;;5067655;28;20231;-57
2022/10/03 11:52:32;;;;;;;8.48;1.75;;;19.80;99.90;;;;;;5072605;28;20203;-56
2022/10/03 11:55:23;;;;;;;9.85;1.98;;;20.10;99.90;;;;;;5069727;28;20416;-54
2022/10/03 11:58:24;;;;;;;11.38;2.28;;;20.30;99.90;;;;;;5069569;28;20420;-54
2022/10/03 12:01:17;;;;;;;9.90;2.08;;;20.20;99.90;;;;;;5069916;28;20403;-55
2022/10/03 12:04:09;;;;;;;10.35;2.15;;;20.00;99.90;;;;;;5070083;28;20414;-54
2022/10/03 12:10:09;;;;;;;10.65;1.77;;;19.90;99.90;;;;;;5065659;28;20342;-55
2022/10/03 12:12:55;;;;;;;8.10;1.90;;;19.90;99.90;;;;;;5072534;28;20219;-56
2022/10/03 12:15:45;;;;;;;11.23;1.98;;;19.80;99.90;;;;;;5072384;28;20605;-55
2022/10/03 12:18:15;;;;;;;10.25;1.75;;;19.70;99.90;;;;;;5071051;28;20271;-55
2022/10/03 12:21:06;;;;;;;8.82;1.90;;;19.70;99.90;;;;;;5070745;28;20176;-55
2022/10/03 12:23:55;;;;;;;10.85;2.15;;;19.90;99.90;;;;;;5070733;28;20180;-55
2022/10/03 12:26:51;;;;;;;7.88;1.63;;;19.70;99.90;;;;;;5070349;28;20223;-55
2022/10/03 12:29:19;;;;;;;8.20;2.20;;;19.80;99.90;;;;;;5069927;28;20200;-55
2022/10/03 12:32:27;;;;;;;10.02;2.22;;;20.10;99.90;;;;;;5055678;28;20177;-56
2022/10/03 12:35:07;;;;;;;6.75;1.88;;;20.30;99.90;;;;;;5066824;28;20173;-55
2022/10/03 12:37:38;;;;;;;6.05;1.60;;;20.20;99.90;;;;;;5052141;28;20234;-56
2022/10/03 12:40:29;;;;;;;11.27;1.90;;;20.30;99.90;;;;;;5066535;28;20176;-56
2022/10/03 12:43:45;;;;;;;9.35;1.67;;;20.40;99.90;;;;;;5072102;28;20605;-56
2022/10/03 12:46:32;;;;;;;8.65;2.13;;;20.50;99.90;;;;;;4998004;28;20247;-56
2022/10/03 12:49:19;;;;;;;5.55;1.63;;;20.30;99.90;;;;;;5071487;28;20248;-56
2022/10/03 12:51:56;;;;;;;10.27;1.83;;;20.70;99.90;;;;;;5069475;28;20267;-56
2022/10/03 12:54:27;;;;;;;6.00;1.50;;;20.80;99.90;;;;;;5072035;28;20187;-56
2022/10/03 12:56:55;;;;;;;8.93;1.83;;;20.90;99.90;;;;;;5064334;28;20506;-56
2022/10/03 12:59:31;;;;;;;6.10;1.92;;;20.80;99.90;;;;;;5071321;28;20184;-56
2022/10/03 13:02:23;;;;;;;7.20;1.83;;;20.40;99.90;;;;;;5070139;28;20233;-56
2022/10/03 13:05:08;;;;;;;9.05;1.88;;;20.10;99.90;;;;;;5071547;28;20175;-56
2022/10/03 13:07:52;;;;;;;9.65;2.35;;;20.20;99.90;;;;;;5051814;28;20169;-56
2022/10/03 13:10:30;;;;;;;16.60;2.10;;;20.20;99.90;;;;;;5063622;28;20184;-56
2022/10/03 13:13:26;;;;;;;10.88;1.63;;;20.30;99.90;;;;;;5062763;28;20717;-55
2022/10/03 13:16:32;;;;;;;10.13;2.10;;;20.40;99.90;;;;;;5061198;28;20210;-56
2022/10/03 13:19:04;;;;;;;11.68;1.92;;;20.20;99.90;;;;;;5071061;28;20175;-57
2022/10/03 13:22:05;;;;;;;9.38;1.75;;;20.70;99.90;;;;;;5071654;28;20185;-56
2022/10/03 13:25:06;;;;;;;7.35;1.70;;;21.00;99.90;;;;;;5069726;28;20176;-56
2022/10/03 13:27:49;;;;;;;7.30;1.90;;;21.50;99.90;;;;;;5022688;28;20191;-56
2022/10/03 13:30:29;;;;;;;10.75;1.92;;;21.90;99.90;;;;;;5051331;28;20211;-56
2022/10/03 13:32:57;;;;;;;8.00;1.77;;;21.60;99.90;;;;;;5070375;28;20176;-56
2022/10/03 13:36:00;;;;;;;8.95;1.80;;;21.40;99.90;;;;;;5070788;28;20169;-56
2022/10/03 13:38:44;;;;;;;9.18;2.00;;;21.10;99.90;;;;;;5064190;28;20230;-56
2022/10/03 13:41:25;;;;;;;8.15;1.88;;;21.20;99.90;;;;;;5069525;28;20207;-56
2022/10/03 13:43:56;;;;;;;8.13;1.77;;;21.30;99.90;;;;;;5070885;28;20239;-55
2022/10/03 13:46:32;;;;;;;10.15;1.98;;;20.90;99.90;;;;;;5068735;28;20212;-56
2022/10/03 13:49:17;;;;;;;8.23;1.88;;;21.20;99.90;;;;;;5071065;28;20175;-56
2022/10/03 13:51:49;;;;;;;9.43;1.95;;;21.30;99.90;;;;;;5065910;28;20203;-56
2022/10/03 13:54:38;;;;;;;10.43;2.15;;;22.20;99.90;;;;;;5051402;28;20201;-56
2022/10/03 13:57:35;;;;;;;14.55;2.75;;;22.80;99.90;;;;;;5044547;28;20643;-56
2022/10/03 14:00:28;;;;;;;9.68;2.05;;;23.00;99.90;;;;;;5048456;28;20612;-56
2022/10/03 14:03:03;;;;;;;9.45;1.73;;;22.50;99.90;;;;;;5053374;28;20284;-56
2022/10/03 14:05:44;;;;;;;12.40;1.85;;;22.20;99.90;;;;;;5070799;28;20196;-56
2022/10/03 14:08:37;;;;;;;14.00;2.10;;;22.10;99.90;;;;;;5070784;28;20191;-56
2022/10/03 14:11:36;;;;;;;6.25;1.77;;;21.80;99.90;;;;;;5050629;28;20231;-56
2022/10/03 14:14:33;;;;;;;9.18;2.15;;;21.70;99.90;;;;;;5052489;28;20184;-56
2022/10/03 14:17:42;;;;;;;8.80;1.80;;;21.40;99.90;;;;;;5069543;28;20407;-55
2022/10/03 14:20:33;;;;;;;8.75;2.22;;;20.60;99.90;;;;;;5066148;28;20184;-56
2022/10/03 14:23:20;;;;;;;8.27;1.70;;;20.40;99.90;;;;;;5069184;28;20191;-56
2022/10/03 14:26:06;;;;;;;7.68;1.92;;;21.40;99.90;;;;;;5070802;28;20243;-56
2022/10/03 14:28:45;;;;;;;8.82;1.85;;;22.20;99.90;;;;;;5070614;28;20631;-56
2022/10/03 14:31:30;;;;;;;8.27;1.83;;;21.90;99.90;;;;;;5071212;28;20225;-56